createdAt,value
2018-12-15T00:01:25.171Z,44.51
2018-12-15T00:03:52.844Z,45.30
2018-12-15T00:06:20.589Z,45.60
2018-12-15T00:08:48.187Z,44.70
2018-12-15T00:11:15.789Z,44.94
2018-12-15T00:13:43.415Z,44.96
2018-12-15T00:16:11.024Z,45.58
2018-12-15T00:18:38.721Z,44.95
2018-12-15T00:21:06.380Z,45.03
2018-12-15T00:23:34.053Z,45.68
2018-12-15T00:26:01.655Z,44.80
2018-12-15T00:28:29.288Z,45.66
2018-12-15T00:30:56.933Z,45.08
2018-12-15T00:33:24.533Z,45.61
2018-12-15T00:35:52.152Z,45.37
2018-12-15T00:38:19.761Z,45.62
2018-12-15T00:40:47.452Z,45.41
2018-12-15T00:43:15.119Z,45.35
2018-12-15T00:45:42.746Z,45.76
2018-12-15T00:48:10.452Z,45.81
2018-12-15T00:50:38.105Z,45.64
2018-12-15T00:53:05.745Z,44.92
2018-12-15T00:55:33.412Z,45.96
2018-12-15T00:58:01.011Z,45.65
2018-12-15T01:00:28.631Z,45.53
2018-12-15T01:02:56.248Z,45.53
2018-12-15T01:05:23.853Z,44.98
2018-12-15T01:07:51.480Z,45.05
2018-12-15T01:10:19.081Z,45.15
2018-12-15T01:12:46.713Z,45.82
2018-12-15T01:15:16.386Z,45.37
2018-12-15T01:17:43.995Z,45.07
2018-12-15T01:20:11.628Z,45.49
2018-12-15T01:22:39.225Z,45.22
2018-12-15T01:25:06.855Z,45.48
2018-12-15T01:27:34.444Z,46.09
2018-12-15T01:30:02.080Z,45.32
2018-12-15T01:32:29.713Z,45.92
2018-12-15T01:34:57.356Z,45.94
2018-12-15T01:37:24.983Z,45.44
2018-12-15T01:39:52.608Z,45.10
2018-12-15T01:42:20.241Z,45.16
2018-12-15T01:44:47.858Z,45.18
2018-12-15T01:47:15.518Z,45.41
2018-12-15T01:49:43.140Z,46.05
2018-12-15T01:52:10.779Z,46.04
2018-12-15T01:54:38.378Z,46.00
2018-12-15T01:57:05.961Z,45.77
2018-12-15T01:59:33.644Z,45.88
2018-12-15T02:02:01.248Z,45.81
2018-12-15T02:04:28.906Z,45.91
2018-12-15T02:06:56.505Z,46.02
2018-12-15T02:09:24.101Z,45.38
2018-12-15T02:11:51.712Z,45.28
2018-12-15T02:14:19.333Z,45.73
2018-12-15T02:16:46.960Z,46.00
2018-12-15T02:19:14.573Z,45.85
2018-12-15T02:21:42.259Z,46.15
2018-12-15T02:24:09.863Z,45.91
2018-12-15T02:26:37.447Z,45.81
2018-12-15T02:29:05.142Z,45.97
2018-12-15T02:31:32.875Z,45.65
2018-12-15T02:34:00.462Z,45.37
2018-12-15T02:36:28.079Z,45.92
2018-12-15T02:38:55.689Z,46.05
2018-12-15T02:41:23.755Z,45.80
2018-12-15T02:43:51.347Z,46.20
2018-12-15T02:46:19.013Z,45.99
2018-12-15T02:48:46.755Z,45.51
2018-12-15T02:51:14.445Z,45.98
2018-12-15T02:53:42.037Z,45.37
2018-12-15T02:56:09.732Z,45.70
2018-12-15T02:58:37.377Z,46.25
2018-12-15T03:01:05.156Z,46.35
2018-12-15T03:03:32.778Z,46.24
2018-12-15T03:06:00.396Z,45.98
2018-12-15T03:08:27.994Z,45.88
2018-12-15T03:10:55.664Z,45.51
2018-12-15T03:13:23.409Z,46.36
2018-12-15T03:15:51.036Z,45.50
2018-12-15T03:18:18.628Z,45.68
2018-12-15T03:20:51.756Z,45.32
2018-12-15T03:23:19.380Z,45.44
2018-12-15T03:25:46.983Z,45.48
2018-12-15T03:28:14.600Z,46.13
2018-12-15T03:30:42.274Z,45.50
2018-12-15T03:33:09.900Z,45.68
2018-12-15T03:35:37.495Z,45.37
2018-12-15T03:38:05.220Z,45.31
2018-12-15T03:40:32.942Z,45.45
2018-12-15T03:43:00.591Z,46.27
2018-12-15T03:45:28.205Z,45.88
2018-12-15T03:47:56.426Z,46.19
2018-12-15T03:50:24.166Z,45.61
2018-12-15T03:52:51.770Z,46.24
2018-12-15T03:55:19.397Z,45.39
2018-12-15T03:57:47.017Z,45.91
2018-12-15T04:00:14.678Z,46.23
2018-12-15T04:02:42.337Z,46.16
2018-12-15T04:05:09.948Z,45.56
2018-12-15T04:07:37.541Z,46.07
2018-12-15T04:10:05.426Z,45.35
2018-12-15T04:12:33.098Z,46.23
2018-12-15T04:15:00.686Z,45.55
2018-12-15T04:17:28.304Z,45.59
2018-12-15T04:19:55.951Z,45.19
2018-12-15T04:22:23.605Z,45.29
2018-12-15T04:24:51.229Z,45.31
2018-12-15T04:27:18.830Z,45.58
2018-12-15T04:29:46.447Z,45.00
2018-12-15T04:32:14.053Z,45.54
2018-12-15T04:34:41.664Z,45.28
2018-12-15T04:37:09.273Z,46.05
2018-12-15T04:39:36.947Z,46.23
2018-12-15T04:42:04.528Z,45.81
2018-12-15T04:44:32.206Z,46.15
2018-12-15T04:47:00.076Z,45.46
2018-12-15T04:49:27.703Z,45.89
2018-12-15T04:51:55.341Z,45.97
2018-12-15T04:54:22.988Z,46.26
2018-12-15T04:56:50.637Z,45.45
2018-12-15T04:59:18.450Z,45.37
2018-12-15T05:01:46.061Z,46.03
2018-12-15T05:04:13.699Z,45.33
2018-12-15T05:06:41.310Z,45.30
2018-12-15T05:09:08.955Z,45.82
2018-12-15T05:11:36.564Z,45.47
2018-12-15T05:14:04.276Z,45.37
2018-12-15T05:16:31.891Z,45.25
2018-12-15T05:18:59.520Z,46.31
2018-12-15T05:21:27.136Z,45.51
2018-12-15T05:23:54.745Z,45.30
2018-12-15T05:26:22.395Z,45.53
2018-12-15T05:28:50.061Z,45.71
2018-12-15T05:31:17.681Z,45.95
2018-12-15T05:33:45.357Z,45.94
2018-12-15T05:36:13.017Z,45.86
2018-12-15T05:38:40.662Z,46.26
2018-12-15T05:41:08.284Z,46.22
2018-12-15T05:43:35.874Z,46.11
2018-12-15T05:46:03.570Z,45.65
2018-12-15T05:48:31.185Z,45.38
2018-12-15T05:50:58.833Z,45.70
2018-12-15T05:53:26.484Z,46.24
2018-12-15T05:55:54.101Z,46.17
2018-12-15T05:58:21.712Z,46.16
2018-12-15T06:00:49.314Z,46.04
2018-12-15T06:03:16.923Z,46.22
2018-12-15T06:05:44.690Z,45.50
2018-12-15T06:08:12.368Z,46.29
2018-12-15T06:10:39.988Z,45.99
2018-12-15T06:13:07.587Z,46.29
2018-12-15T06:15:35.250Z,45.69
2018-12-15T06:18:02.831Z,45.94
2018-12-15T06:20:30.428Z,45.86
2018-12-15T06:22:58.015Z,46.12
2018-12-15T06:25:25.645Z,46.16
2018-12-15T06:27:53.269Z,46.02
2018-12-15T06:30:20.864Z,45.55
2018-12-15T06:32:48.470Z,45.85
2018-12-15T06:35:16.123Z,45.92
2018-12-15T06:37:43.749Z,45.43
2018-12-15T06:40:11.357Z,46.41
2018-12-15T06:42:38.958Z,46.41
2018-12-15T06:45:07.023Z,45.95
2018-12-15T06:47:34.627Z,45.69
2018-12-15T06:50:02.231Z,45.37
2018-12-15T06:52:29.926Z,45.38
2018-12-15T06:54:57.574Z,46.24
2018-12-15T06:57:25.648Z,46.14
2018-12-15T06:59:53.300Z,46.41
2018-12-15T07:02:20.957Z,46.39
2018-12-15T07:04:48.598Z,46.04
2018-12-15T07:07:16.230Z,45.53
2018-12-15T07:09:44.001Z,45.98
2018-12-15T07:12:11.705Z,45.64
2018-12-15T07:14:40.461Z,45.79
2018-12-15T07:17:08.081Z,46.37
2018-12-15T07:19:35.702Z,45.88
2018-12-15T07:22:03.373Z,46.35
2018-12-15T07:24:31.012Z,46.72
2018-12-15T07:26:58.675Z,45.76
2018-12-15T07:29:26.532Z,45.76
2018-12-15T07:31:54.168Z,46.21
2018-12-15T07:34:21.811Z,45.54
2018-12-15T07:36:49.535Z,46.44
2018-12-15T07:39:17.627Z,45.79
2018-12-15T07:41:45.309Z,45.79
2018-12-15T07:44:12.976Z,45.53
2018-12-15T07:46:40.645Z,46.38
2018-12-15T07:49:08.354Z,45.62
2018-12-15T07:51:36.241Z,45.77
2018-12-15T07:54:04.703Z,45.72
2018-12-15T07:56:32.538Z,46.19
2018-12-15T07:59:00.400Z,46.19
2018-12-15T08:01:28.669Z,46.17
2018-12-15T08:03:56.472Z,46.56
2018-12-15T08:06:24.391Z,46.28
2018-12-15T08:08:52.111Z,45.72
2018-12-15T08:11:25.146Z,46.18
2018-12-15T08:13:57.020Z,46.12
2018-12-15T08:16:24.685Z,45.57
2018-12-15T08:18:57.875Z,46.17
2018-12-15T08:21:22.040Z,45.97
2018-12-15T08:23:49.871Z,46.00
2018-12-15T08:26:17.744Z,46.27
2018-12-15T08:28:45.754Z,45.38
2018-12-15T08:31:13.665Z,46.39
2018-12-15T08:33:41.274Z,45.98
2018-12-15T08:36:08.974Z,46.16
2018-12-15T08:38:36.709Z,45.43
2018-12-15T08:41:05.697Z,45.41
2018-12-15T08:43:33.288Z,45.38
2018-12-15T08:46:02.092Z,45.29
2018-12-15T08:48:29.757Z,45.63
2018-12-15T08:50:57.577Z,45.66
2018-12-15T08:53:25.329Z,45.76
2018-12-15T08:55:52.935Z,46.47
2018-12-15T08:58:20.709Z,45.54
2018-12-15T09:00:48.336Z,46.22
2018-12-15T09:03:16.053Z,45.58
2018-12-15T09:05:43.748Z,45.40
2018-12-15T09:08:13.440Z,46.19
2018-12-15T09:10:41.076Z,45.91
2018-12-15T09:13:08.651Z,45.79
2018-12-15T09:15:36.235Z,45.65
2018-12-15T09:18:03.875Z,45.90
2018-12-15T09:20:31.477Z,45.64
2018-12-15T09:22:59.209Z,46.22
2018-12-15T09:25:26.821Z,45.54
2018-12-15T09:27:54.406Z,46.07
2018-12-15T09:30:21.997Z,46.08
2018-12-15T09:32:49.580Z,45.54
2018-12-15T09:35:17.176Z,46.23
2018-12-15T09:37:44.795Z,45.48
2018-12-15T09:40:13.643Z,46.47
2018-12-15T09:42:41.309Z,46.10
2018-12-15T09:45:08.908Z,46.03
2018-12-15T09:47:36.484Z,45.29
2018-12-15T09:50:04.121Z,45.63
2018-12-15T09:52:31.700Z,46.04
2018-12-15T09:54:59.307Z,45.37
2018-12-15T09:57:26.913Z,45.78
2018-12-15T09:59:54.484Z,45.40
2018-12-15T10:02:22.077Z,45.55
2018-12-15T10:04:49.724Z,45.92
2018-12-15T10:07:17.332Z,46.09
2018-12-15T10:09:44.920Z,46.42
2018-12-15T10:12:12.637Z,45.99
2018-12-15T10:14:40.253Z,45.48
2018-12-15T10:17:08.961Z,46.01
2018-12-15T10:19:36.782Z,45.73
2018-12-15T10:22:04.429Z,45.28
2018-12-15T10:24:32.028Z,45.20
2018-12-15T10:26:59.630Z,45.41
2018-12-15T10:29:32.357Z,45.21
2018-12-15T10:32:05.249Z,45.59
2018-12-15T10:34:32.838Z,45.42
2018-12-15T10:37:00.433Z,45.24
2018-12-15T10:39:28.037Z,45.27
2018-12-15T10:41:55.680Z,45.80
2018-12-15T10:44:23.317Z,45.77
2018-12-15T10:46:50.912Z,45.70
2018-12-15T10:49:18.508Z,45.76
2018-12-15T10:51:46.102Z,45.27
2018-12-15T10:54:13.697Z,45.20
2018-12-15T10:56:41.384Z,44.89
2018-12-15T10:59:08.985Z,44.36
2018-12-15T11:01:36.580Z,43.71
2018-12-15T11:04:04.173Z,44.78
2018-12-15T11:06:31.774Z,44.46
2018-12-15T11:08:59.366Z,44.52
2018-12-15T11:11:26.954Z,43.50
2018-12-15T11:13:54.570Z,44.24
2018-12-15T11:16:22.148Z,44.31
2018-12-15T11:18:49.755Z,44.96
2018-12-15T11:21:17.336Z,45.22
2018-12-15T11:23:44.935Z,45.15
2018-12-15T11:26:12.523Z,44.81
2018-12-15T11:28:40.184Z,45.17
2018-12-15T11:31:07.770Z,45.28
2018-12-15T11:33:35.550Z,44.22
2018-12-15T11:36:03.193Z,44.46
2018-12-15T11:38:30.788Z,44.92
2018-12-15T11:40:58.359Z,44.53
2018-12-15T11:43:25.957Z,45.40
2018-12-15T11:45:53.548Z,44.73
2018-12-15T11:48:21.136Z,45.43
2018-12-15T11:50:48.846Z,44.90
2018-12-15T11:53:16.428Z,44.63
2018-12-15T11:55:44.683Z,44.58
2018-12-15T11:58:12.575Z,44.64
2018-12-15T12:00:40.169Z,44.87
2018-12-15T12:03:07.873Z,44.56
2018-12-15T12:05:35.464Z,45.39
2018-12-15T12:08:03.090Z,45.58
2018-12-15T12:10:30.676Z,45.49
2018-12-15T12:12:58.251Z,45.61
2018-12-15T12:15:25.865Z,45.34
2018-12-15T12:17:53.450Z,45.22
2018-12-15T12:20:21.365Z,45.31
2018-12-15T12:22:48.992Z,45.09
2018-12-15T12:25:16.584Z,44.98
2018-12-15T12:27:44.164Z,45.20
2018-12-15T12:30:11.781Z,45.30
2018-12-15T12:32:39.377Z,45.01
2018-12-15T12:35:07.097Z,45.12
2018-12-15T12:37:34.679Z,44.95
2018-12-15T12:40:02.292Z,45.80
2018-12-15T12:42:29.875Z,45.12
2018-12-15T12:44:57.488Z,45.11
2018-12-15T12:47:25.083Z,45.25
2018-12-15T12:49:56.888Z,45.60
2018-12-15T12:52:22.429Z,44.87
2018-12-15T12:54:50.077Z,45.07
2018-12-15T12:57:17.686Z,44.91
2018-12-15T12:59:45.292Z,44.94
2018-12-15T13:02:12.904Z,44.94
2018-12-15T13:04:40.500Z,45.42
2018-12-15T13:07:08.108Z,45.36
2018-12-15T13:09:35.696Z,45.35
2018-12-15T13:12:03.305Z,45.16
2018-12-15T13:14:30.917Z,45.39
2018-12-15T13:16:58.573Z,44.82
2018-12-15T13:19:26.188Z,44.81
2018-12-15T13:21:53.777Z,44.57
2018-12-15T13:24:21.450Z,44.80
2018-12-15T13:26:49.076Z,44.56
2018-12-15T13:29:16.717Z,45.02
2018-12-15T13:31:44.357Z,44.93
2018-12-15T13:34:11.976Z,44.97
2018-12-15T13:36:39.556Z,44.57
2018-12-15T13:39:07.206Z,45.17
2018-12-15T13:41:34.836Z,44.95
2018-12-15T13:44:02.429Z,45.20
2018-12-15T13:46:30.160Z,44.59
2018-12-15T13:48:57.756Z,44.74
2018-12-15T13:51:25.356Z,44.71
2018-12-15T13:53:52.972Z,44.72
2018-12-15T13:56:20.588Z,45.04
2018-12-15T13:58:48.173Z,44.74
2018-12-15T14:01:15.824Z,44.73
2018-12-15T14:03:43.474Z,45.01
2018-12-15T14:06:11.125Z,44.81
2018-12-15T14:08:38.735Z,44.48
2018-12-15T14:11:06.367Z,45.27
2018-12-15T14:13:33.953Z,44.64
2018-12-15T14:16:01.547Z,44.41
2018-12-15T14:18:29.137Z,44.34
2018-12-15T14:20:56.707Z,45.16
2018-12-15T14:23:24.306Z,45.21
2018-12-15T14:25:51.905Z,44.48
2018-12-15T14:28:19.613Z,44.85
2018-12-15T14:30:47.225Z,44.68
2018-12-15T14:33:14.821Z,45.21
2018-12-15T14:35:42.412Z,44.61
2018-12-15T14:38:09.996Z,45.09
2018-12-15T14:40:37.593Z,44.61
2018-12-15T14:43:05.308Z,45.19
2018-12-15T14:45:33.061Z,44.75
2018-12-15T14:48:00.678Z,45.42
2018-12-15T14:50:28.290Z,45.42
2018-12-15T14:52:55.883Z,45.43
2018-12-15T14:55:23.501Z,45.28
2018-12-15T14:57:51.088Z,44.75
2018-12-15T15:00:18.721Z,45.35
2018-12-15T15:02:46.319Z,45.17
2018-12-15T15:05:13.945Z,45.29
2018-12-15T15:07:41.537Z,45.12
2018-12-15T15:10:09.140Z,45.01
2018-12-15T15:12:36.723Z,44.69
2018-12-15T15:15:04.888Z,44.63
2018-12-15T15:17:32.500Z,44.48
2018-12-15T15:20:00.119Z,44.98
2018-12-15T15:22:27.705Z,44.68
2018-12-15T15:24:55.288Z,45.43
2018-12-15T15:27:22.873Z,45.14
2018-12-15T15:29:50.521Z,44.62
2018-12-15T15:32:18.107Z,45.39
2018-12-15T15:34:45.750Z,44.85
2018-12-15T15:37:13.344Z,44.60
2018-12-15T15:39:40.928Z,44.52
2018-12-15T15:42:08.521Z,44.76
2018-12-15T15:44:36.109Z,45.02
2018-12-15T15:47:03.811Z,44.69
2018-12-15T15:49:31.403Z,44.71
2018-12-15T15:51:58.993Z,44.59
2018-12-15T15:54:26.672Z,44.38
2018-12-15T15:56:54.351Z,44.51
2018-12-15T15:59:21.970Z,45.02
2018-12-15T16:01:49.578Z,44.85
2018-12-15T16:04:17.168Z,43.21
2018-12-15T16:06:44.752Z,39.64
2018-12-15T16:09:12.321Z,40.16
2018-12-15T16:11:39.907Z,40.66
2018-12-15T16:14:07.519Z,40.00
2018-12-15T16:16:35.223Z,39.06
2018-12-15T16:19:02.931Z,36.95
2018-12-15T16:21:30.517Z,39.90
2018-12-15T16:23:58.233Z,40.04
2018-12-15T16:26:25.855Z,40.81
2018-12-15T16:28:53.711Z,41.67
2018-12-15T16:31:21.307Z,41.52
2018-12-15T16:33:49.013Z,41.72
2018-12-15T16:36:16.692Z,41.55
2018-12-15T16:38:44.296Z,42.11
2018-12-15T16:41:12.040Z,42.39
2018-12-15T16:43:39.634Z,42.83
2018-12-15T16:46:07.288Z,42.76
2018-12-15T16:48:34.882Z,42.61
2018-12-15T16:51:02.579Z,43.06
2018-12-15T16:53:30.418Z,42.74
2018-12-15T16:55:58.038Z,43.36
2018-12-15T16:58:25.629Z,43.31
2018-12-15T17:03:30.453Z,43.33
2018-12-15T17:05:56.819Z,43.18
2018-12-15T17:08:24.410Z,44.09
2018-12-15T17:10:52.080Z,44.14
2018-12-15T17:13:19.926Z,43.92
2018-12-15T17:15:47.534Z,43.90
2018-12-15T17:18:15.144Z,44.46
2018-12-15T17:20:42.848Z,44.76
2018-12-15T17:23:10.462Z,44.46
2018-12-15T17:25:38.053Z,44.51
2018-12-15T17:28:05.673Z,44.59
2018-12-15T17:30:33.260Z,44.30
2018-12-15T17:33:00.902Z,45.11
2018-12-15T17:35:28.504Z,44.99
2018-12-15T17:37:56.169Z,45.05
2018-12-15T17:40:23.787Z,44.87
2018-12-15T17:42:51.533Z,44.66
2018-12-15T17:45:19.125Z,44.22
2018-12-15T17:47:46.711Z,44.16
2018-12-15T17:50:15.024Z,44.27
2018-12-15T17:52:42.803Z,44.61
2018-12-15T17:55:10.401Z,46.28
2018-12-15T17:57:38.017Z,46.91
2018-12-15T18:00:07.085Z,48.86
2018-12-15T18:02:34.691Z,49.94
2018-12-15T18:05:02.281Z,49.87
2018-12-15T18:07:29.861Z,47.56
2018-12-15T18:09:57.444Z,48.64
2018-12-15T18:12:25.029Z,49.10
2018-12-15T18:14:52.836Z,49.09
2018-12-15T18:17:20.433Z,49.26
2018-12-15T18:19:48.024Z,49.18
2018-12-15T18:22:15.609Z,49.36
2018-12-15T18:24:43.192Z,49.12
2018-12-15T18:27:10.784Z,49.38
2018-12-15T18:29:38.364Z,49.34
2018-12-15T18:32:05.988Z,48.98
2018-12-15T18:34:33.642Z,48.34
2018-12-15T18:37:01.249Z,49.18
2018-12-15T18:39:28.860Z,48.80
2018-12-15T18:41:56.449Z,48.90
2018-12-15T18:44:24.061Z,48.64
2018-12-15T18:46:51.648Z,48.52
2018-12-15T18:49:19.237Z,48.18
2018-12-15T18:51:46.822Z,48.21
2018-12-15T18:54:14.411Z,48.99
2018-12-15T18:56:42.263Z,48.39
2018-12-15T18:59:09.897Z,47.91
2018-12-15T19:01:37.551Z,47.71
2018-12-15T19:04:05.313Z,48.17
2018-12-15T19:06:33.020Z,48.95
2018-12-15T19:09:04.039Z,48.22
2018-12-15T19:11:30.425Z,48.66
2018-12-15T19:13:58.096Z,47.63
2018-12-15T19:16:25.742Z,47.76
2018-12-15T19:18:59.952Z,47.86
2018-12-15T19:21:27.612Z,47.57
2018-12-15T19:23:55.282Z,48.38
2018-12-15T19:26:22.990Z,48.33
2018-12-15T19:28:50.696Z,48.40
2018-12-15T19:31:18.368Z,47.72
2018-12-15T19:33:46.040Z,47.66
2018-12-15T19:36:13.697Z,48.07
2018-12-15T19:38:41.404Z,48.12
2018-12-15T19:41:09.137Z,47.45
2018-12-15T19:43:37.043Z,47.58
2018-12-15T19:46:04.745Z,48.21
2018-12-15T19:48:32.396Z,48.08
2018-12-15T19:51:00.228Z,47.24
2018-12-15T19:53:27.885Z,47.84
2018-12-15T19:55:55.517Z,47.67
2018-12-15T19:58:23.221Z,47.58
2018-12-15T20:00:50.869Z,47.32
2018-12-15T20:03:18.501Z,47.91
2018-12-15T20:05:46.151Z,47.37
2018-12-15T20:08:13.829Z,47.89
2018-12-15T20:10:41.572Z,47.07
2018-12-15T20:13:09.308Z,47.64
2018-12-15T20:15:36.990Z,47.74
2018-12-15T20:18:04.612Z,47.17
2018-12-15T20:20:32.298Z,47.95
2018-12-15T20:23:06.222Z,47.09
2018-12-15T20:25:33.915Z,46.97
2018-12-15T20:28:01.545Z,47.65
2018-12-15T20:30:29.248Z,47.43
2018-12-15T20:32:56.906Z,46.89
2018-12-15T20:35:30.983Z,47.43
2018-12-15T20:37:58.622Z,46.90
2018-12-15T20:40:26.290Z,46.96
2018-12-15T20:42:53.982Z,46.79
2018-12-15T20:45:21.609Z,46.99
2018-12-15T20:47:49.416Z,46.73
2018-12-15T20:50:17.217Z,46.94
2018-12-15T20:52:47.712Z,47.09
2018-12-15T20:55:14.585Z,47.11
2018-12-15T20:57:42.302Z,46.95
2018-12-15T21:00:10.297Z,46.87
2018-12-15T21:02:37.901Z,46.73
2018-12-15T21:05:05.553Z,47.18
2018-12-15T21:07:33.167Z,47.22
2018-12-15T21:10:00.769Z,46.47
2018-12-15T21:12:29.441Z,46.87
2018-12-15T21:14:59.171Z,47.11
2018-12-15T21:17:26.805Z,47.07
2018-12-15T21:19:54.463Z,46.82
2018-12-15T21:22:22.162Z,46.57
2018-12-15T21:24:49.939Z,46.70
2018-12-15T21:27:17.566Z,46.66
2018-12-15T21:29:45.246Z,46.68
2018-12-15T21:32:12.840Z,46.86
2018-12-15T21:34:40.513Z,46.79
2018-12-15T21:37:08.152Z,46.86
2018-12-15T21:39:35.773Z,46.87
2018-12-15T21:42:03.426Z,46.14
2018-12-15T21:44:31.085Z,46.25
2018-12-15T21:46:58.751Z,46.70
2018-12-15T21:49:26.413Z,46.50
2018-12-15T21:51:56.402Z,46.62
2018-12-15T21:54:23.796Z,46.58
2018-12-15T21:56:51.584Z,46.64
2018-12-15T21:59:19.235Z,46.31
2018-12-15T22:01:47.021Z,46.88
2018-12-15T22:04:14.813Z,46.96
2018-12-15T22:06:42.744Z,46.85
2018-12-15T22:09:10.451Z,46.41
2018-12-15T22:11:38.178Z,47.10
2018-12-15T22:14:05.835Z,46.60
2018-12-15T22:16:33.571Z,46.86
2018-12-15T22:19:01.230Z,47.16
2018-12-15T22:21:29.405Z,46.74
2018-12-15T22:23:57.020Z,46.99
2018-12-15T22:26:24.722Z,47.17
2018-12-15T22:28:52.376Z,47.10
2018-12-15T22:31:20.005Z,46.93
2018-12-15T22:33:47.620Z,47.04
2018-12-15T22:36:15.269Z,46.74
2018-12-15T22:38:42.911Z,46.42
2018-12-15T22:41:10.492Z,47.26
2018-12-15T22:43:38.161Z,46.37
2018-12-15T22:46:05.788Z,46.64
2018-12-15T22:48:33.379Z,47.05
2018-12-15T22:51:01.012Z,46.37
2018-12-15T22:53:28.602Z,46.34
2018-12-15T22:55:56.202Z,46.26
2018-12-15T22:58:23.824Z,46.38
2018-12-15T23:00:56.602Z,47.29
2018-12-15T23:03:24.257Z,47.14
2018-12-15T23:05:51.987Z,46.82
2018-12-15T23:08:19.581Z,46.35
2018-12-15T23:10:47.197Z,46.89
2018-12-15T23:13:14.793Z,46.16
2018-12-15T23:15:42.397Z,47.12
2018-12-15T23:18:10.023Z,47.05
2018-12-15T23:20:37.619Z,47.17
2018-12-15T23:23:05.240Z,46.41
2018-12-15T23:25:32.993Z,46.44
2018-12-15T23:28:00.592Z,46.45
2018-12-15T23:30:28.187Z,47.25
2018-12-15T23:32:55.801Z,47.39
2018-12-15T23:35:23.417Z,46.32
2018-12-15T23:37:51.005Z,46.63
2018-12-15T23:40:18.617Z,46.86
2018-12-15T23:42:46.240Z,47.02
2018-12-15T23:45:13.828Z,46.97
2018-12-15T23:47:41.432Z,47.04
2018-12-15T23:50:09.099Z,46.56
2018-12-15T23:52:36.754Z,47.33
2018-12-15T23:55:04.429Z,47.08
2018-12-15T23:57:32.083Z,46.47
2018-12-15T23:59:59.794Z,47.20
